Qasr Farafra, Egypt
Current Conditions -  °F | °C
As of 10:00 PM on Thursday 27 Nov 2014 (Local Time) from HESG Reporting Station
Clear Clear  
Wind Chill: 59°   Ceiling: Unl
Heat Index: 59°   Visibility: 6mi
Dew Point: 43°   Wind: 6mph
Humidity: 55%   Direction: 310°NW
Pressure: 30.12"   Gusts: NA
Location:  27.06°N, 27.97°E
Report Text: HESG 272000Z 31005KT CAVOK 15/06 Q1020 NOSIG
Loading
Personal Weather Stations






























Interactive Weather Map New forecast layout! Learn more

10-Day Weather Forecast

Advertisements
Track Severe Weather on mobile